Time;durP1;ratioP1;P1;durP2;ratioP2;P2;SDS_P1;SDS_P2;PMS_P1;PMS_P2;Temp;Humidity;BMP_temperature;BMP_pressure;BME280_temperature;BME280_humidity;BME280_pressure;Samples;Min_cycle;Max_cycle;Signal;HPM_P1;HPM_P2
2021/08/18 00:02:04;;;;;;;;;;;31.90;31.60;;;;;;4311855;33;19994;-39
2021/08/18 00:04:30;;;;;;;;;;;32.00;32.10;;;;;;4311514;33;20407;-39
2021/08/18 00:06:56;;;;;;;;;;;32.10;32.30;;;;;;4316534;33;19950;-39
2021/08/18 00:09:23;;;;;;;;;;;32.20;32.50;;;;;;4343860;33;19958;-39
2021/08/18 00:11:49;;;;;;;;;;;32.20;32.70;;;;;;4343762;33;20011;-39
2021/08/18 00:14:15;;;;;;;;;;;32.20;32.80;;;;;;4330177;33;19966;-38
2021/08/18 00:16:42;;;;;;;;;;;32.20;33.10;;;;;;4349094;32;20393;-39
2021/08/18 00:19:08;;;;;;;;;;;32.10;33.30;;;;;;4358369;32;20373;-38
2021/08/18 00:21:34;;;;;;;;;;;32.10;33.80;;;;;;4358072;32;19968;-38
2021/08/18 00:24:00;;;;;;;;;;;32.10;34.80;;;;;;4340804;33;20064;-38
2021/08/18 00:26:26;;;;;;;;;;;32.00;35.70;;;;;;4340953;33;20374;-38
2021/08/18 00:28:54;;;;;;;;;;;31.90;35.60;;;;;;4341082;33;19962;-38
2021/08/18 00:31:21;;;;;;;;;;;31.80;35.30;;;;;;4336705;33;19967;-39
2021/08/18 00:33:48;;;;;;;;;;;31.80;35.40;;;;;;4326366;33;20001;-39
2021/08/18 00:36:14;;;;;;;;;;;31.90;35.50;;;;;;4326501;33;19964;-38
2021/08/18 00:38:40;;;;;;;;;;;31.80;36.30;;;;;;4326209;33;19990;-37
2021/08/18 00:41:07;;;;;;;;;;;31.80;36.90;;;;;;4326155;33;19998;-39
2021/08/18 00:43:33;;;;;;;;;;;31.70;37.30;;;;;;4326614;33;19973;-38
2021/08/18 00:45:59;;;;;;;;;;;31.60;37.00;;;;;;4326059;33;20052;-38
2021/08/18 00:48:25;;;;;;;;;;;31.50;36.60;;;;;;4326313;33;19987;-38
2021/08/18 00:50:51;;;;;;;;;;;31.40;36.30;;;;;;4326081;33;19978;-38
2021/08/18 00:53:17;;;;;;;;;;;31.40;36.00;;;;;;4326146;33;19998;-39
2021/08/18 00:55:44;;;;;;;;;;;31.40;35.70;;;;;;4326105;33;19967;-38
2021/08/18 00:58:10;;;;;;;;;;;31.40;35.70;;;;;;4325807;33;20486;-39
2021/08/18 01:00:36;;;;;;;;;;;31.40;35.50;;;;;;4318704;32;19962;-39
2021/08/18 01:03:03;;;;;;;;;;;31.50;35.50;;;;;;4358542;32;19961;-39
2021/08/18 01:05:30;;;;;;;;;;;31.50;35.60;;;;;;4358058;32;20490;-38
2021/08/18 01:07:57;;;;;;;;;;;31.50;35.70;;;;;;4358774;32;19970;-38
2021/08/18 01:10:25;;;;;;;;;;;31.50;36.10;;;;;;4357967;32;19958;-38
2021/08/18 01:12:51;;;;;;;;;;;31.40;36.20;;;;;;4345550;32;19978;-38
2021/08/18 01:15:19;;;;;;;;;;;31.40;36.20;;;;;;4360830;32;19981;-39
2021/08/18 01:17:47;;;;;;;;;;;31.30;36.30;;;;;;4346404;32;20358;-40
2021/08/18 01:20:19;;;;;;;;;;;31.30;36.60;;;;;;4346842;32;19969;-38
2021/08/18 01:22:45;;;;;;;;;;;31.30;36.80;;;;;;4360749;32;19972;-38
2021/08/18 01:25:12;;;;;;;;;;;31.30;36.80;;;;;;4360995;32;20399;-39
2021/08/18 01:27:42;;;;;;;;;;;31.30;37.10;;;;;;4361075;32;19954;-38
2021/08/18 01:30:09;;;;;;;;;;;31.30;37.00;;;;;;4360340;32;20374;-38
2021/08/18 01:32:52;;;;;;;;;;;31.40;37.10;;;;;;4360731;32;20045;-39
2021/08/18 01:35:40;;;;;;;;;;;31.40;37.10;;;;;;4359293;32;19993;-38
2021/08/18 01:38:07;;;;;;;;;;;31.40;37.00;;;;;;4360839;32;19961;-38
2021/08/18 01:40:33;;;;;;;;;;;31.40;36.80;;;;;;4360531;32;20405;-38
2021/08/18 01:42:59;;;;;;;;;;;31.40;37.00;;;;;;4359295;32;20415;-39
2021/08/18 01:45:27;;;;;;;;;;;31.30;37.00;;;;;;4358958;32;20040;-38
2021/08/18 01:47:54;;;;;;;;;;;31.30;37.10;;;;;;4360191;32;20366;-38
2021/08/18 01:50:21;;;;;;;;;;;31.20;37.40;;;;;;4360658;32;20007;-38
2021/08/18 01:52:51;;;;;;;;;;;31.10;37.80;;;;;;4360199;32;20407;-38
2021/08/18 01:55:18;;;;;;;;;;;30.90;37.90;;;;;;4360003;32;19965;-38
2021/08/18 01:57:44;;;;;;;;;;;30.80;38.20;;;;;;4360335;32;19954;-38
2021/08/18 02:00:11;;;;;;;;;;;30.70;38.00;;;;;;4359693;32;19968;-39
2021/08/18 02:02:38;;;;;;;;;;;30.60;37.30;;;;;;4360150;32;20034;-39
2021/08/18 02:05:05;;;;;;;;;;;30.50;37.40;;;;;;4342678;33;19988;-37
2021/08/18 02:07:31;;;;;;;;;;;30.40;37.30;;;;;;4343150;33;19973;-38
2021/08/18 02:09:57;;;;;;;;;;;30.40;37.10;;;;;;4342863;33;19954;-38
2021/08/18 02:12:23;;;;;;;;;;;30.40;37.10;;;;;;4342621;33;20446;-39
2021/08/18 02:14:50;;;;;;;;;;;30.30;36.90;;;;;;4342974;33;20060;-38
2021/08/18 02:17:16;;;;;;;;;;;30.30;36.70;;;;;;4312802;33;19991;-38
2021/08/18 02:19:42;;;;;;;;;;;30.30;36.70;;;;;;4301026;33;20481;-39
2021/08/18 02:22:08;;;;;;;;;;;30.30;36.90;;;;;;4313153;33;20024;-38
2021/08/18 02:24:34;;;;;;;;;;;30.30;37.00;;;;;;4285519;33;19975;-39
2021/08/18 02:27:00;;;;;;;;;;;30.30;37.50;;;;;;4298886;33;20130;-38
2021/08/18 02:29:27;;;;;;;;;;;30.40;38.40;;;;;;4298028;33;20158;-37
2021/08/18 02:31:53;;;;;;;;;;;30.50;38.50;;;;;;4290985;33;20136;-39
2021/08/18 02:34:19;;;;;;;;;;;30.50;38.80;;;;;;4284377;33;19975;-37
2021/08/18 02:36:45;;;;;;;;;;;30.60;38.30;;;;;;4283915;33;19967;-38
2021/08/18 02:39:11;;;;;;;;;;;30.70;38.00;;;;;;4283777;33;19963;-38
2021/08/18 02:41:37;;;;;;;;;;;30.90;37.60;;;;;;4287390;33;19960;-38
2021/08/18 02:44:04;;;;;;;;;;;31.00;37.30;;;;;;4313080;33;19989;-45
2021/08/18 02:46:30;;;;;;;;;;;31.10;37.00;;;;;;4312489;33;20431;-38
2021/08/18 02:48:56;;;;;;;;;;;31.30;37.00;;;;;;4335286;33;20009;-38
2021/08/18 02:51:22;;;;;;;;;;;31.40;36.90;;;;;;4342103;33;20040;-38
2021/08/18 02:53:48;;;;;;;;;;;31.60;36.70;;;;;;4342303;33;19973;-37
2021/08/18 02:56:15;;;;;;;;;;;31.70;36.50;;;;;;4341877;33;20112;-38
2021/08/18 02:58:41;;;;;;;;;;;31.90;36.40;;;;;;4329892;33;19985;-38
2021/08/18 03:01:07;;;;;;;;;;;32.00;36.10;;;;;;4344148;32;19968;-37
2021/08/18 03:03:33;;;;;;;;;;;32.10;36.60;;;;;;4359504;32;19969;-38
2021/08/18 03:05:59;;;;;;;;;;;32.30;35.90;;;;;;4359322;32;20390;-37
2021/08/18 03:08:26;;;;;;;;;;;32.40;35.80;;;;;;4359037;32;20390;-38
2021/08/18 03:10:52;;;;;;;;;;;32.50;35.70;;;;;;4359552;32;19973;-38
2021/08/18 03:13:18;;;;;;;;;;;32.70;35.70;;;;;;4345518;32;19945;-38
2021/08/18 03:15:44;;;;;;;;;;;32.80;35.60;;;;;;4359161;32;19970;-39
2021/08/18 03:18:10;;;;;;;;;;;33.00;35.70;;;;;;4359338;32;19969;-39
2021/08/18 03:20:36;;;;;;;;;;;33.20;35.70;;;;;;4359511;32;19962;-38
2021/08/18 03:23:03;;;;;;;;;;;33.40;35.70;;;;;;4345086;32;19977;-38
2021/08/18 03:25:30;;;;;;;;;;;33.60;35.50;;;;;;4358542;32;19957;-38
2021/08/18 03:27:56;;;;;;;;;;;33.90;35.50;;;;;;4358996;32;19962;-39
2021/08/18 03:30:22;;;;;;;;;;;34.20;35.40;;;;;;4358769;32;20055;-37
2021/08/18 03:32:48;;;;;;;;;;;34.50;35.20;;;;;;4358787;32;19966;-38
2021/08/18 03:35:14;;;;;;;;;;;34.80;35.10;;;;;;4340361;33;19973;-39
2021/08/18 03:37:40;;;;;;;;;;;35.00;34.70;;;;;;4341643;33;20062;-38
2021/08/18 03:40:07;;;;;;;;;;;35.20;34.50;;;;;;4341701;33;19970;-38
2021/08/18 03:42:33;;;;;;;;;;;35.30;34.20;;;;;;4341546;33;20484;-38
2021/08/18 03:44:59;;;;;;;;;;;35.40;34.00;;;;;;4341200;33;19998;-39
2021/08/18 03:47:25;;;;;;;;;;;35.40;33.80;;;;;;4341380;33;19990;-37
2021/08/18 03:49:51;;;;;;;;;;;35.50;33.50;;;;;;4341505;33;20399;-38
2021/08/18 03:52:18;;;;;;;;;;;35.60;33.30;;;;;;4341601;33;19958;-38
2021/08/18 03:54:44;;;;;;;;;;;35.60;33.00;;;;;;4341393;33;19958;-38
2021/08/18 03:57:10;;;;;;;;;;;35.80;32.80;;;;;;4341321;33;20473;-38
2021/08/18 03:59:36;;;;;;;;;;;36.00;32.50;;;;;;4341708;33;19958;-38
2021/08/18 04:02:02;;;;;;;;;;;36.10;32.20;;;;;;4341264;33;20076;-38
2021/08/18 04:04:29;;;;;;;;;;;36.40;31.80;;;;;;4329326;33;20048;-39
2021/08/18 04:06:55;;;;;;;;;;;36.60;31.50;;;;;;4341195;33;20441;-38
2021/08/18 04:09:21;;;;;;;;;;;37.00;31.20;;;;;;4341046;33;19969;-38
2021/08/18 04:11:47;;;;;;;;;;;37.40;31.00;;;;;;4343362;32;19958;-38
2021/08/18 04:14:13;;;;;;;;;;;37.70;30.60;;;;;;4358536;32;19981;-37
2021/08/18 04:16:39;;;;;;;;;;;38.10;30.10;;;;;;4363676;32;20417;-38
2021/08/18 04:19:06;;;;;;;;;;;38.30;30.00;;;;;;4359436;32;19957;-39
2021/08/18 04:21:32;;;;;;;;;;;38.60;29.90;;;;;;4373101;32;20000;-38
2021/08/18 04:23:58;;;;;;;;;;;38.90;29.50;;;;;;4373357;32;19970;-37
2021/08/18 04:26:24;;;;;;;;;;;39.10;29.30;;;;;;4359492;32;20448;-38
2021/08/18 04:28:50;;;;;;;;;;;39.40;29.00;;;;;;4373718;32;19968;-38
2021/08/18 04:31:17;;;;;;;;;;;39.60;28.70;;;;;;4373249;32;20386;-38
2021/08/18 04:33:43;;;;;;;;;;;39.90;28.60;;;;;;4372907;32;19985;-37
2021/08/18 04:36:09;;;;;;;;;;;40.10;28.50;;;;;;4373007;32;19965;-38
2021/08/18 04:38:35;;;;;;;;;;;40.30;28.00;;;;;;4373159;32;19958;-38
2021/08/18 04:41:01;;;;;;;;;;;40.50;27.90;;;;;;4372803;32;19957;-39
2021/08/18 04:43:27;;;;;;;;;;;40.70;27.90;;;;;;4373372;32;20379;-38
2021/08/18 04:45:54;;;;;;;;;;;40.80;28.00;;;;;;4373157;32;20045;-39
2021/08/18 04:48:21;;;;;;;;;;;41.00;28.10;;;;;;4376033;32;19981;-38
2021/08/18 04:50:49;;;;;;;;;;;41.30;28.30;;;;;;4376572;32;19969;-38
2021/08/18 04:53:15;;;;;;;;;;;41.50;28.30;;;;;;4376239;32;19981;-39
2021/08/18 04:55:42;;;;;;;;;;;41.60;28.10;;;;;;4376036;32;19992;-38
2021/08/18 04:58:08;;;;;;;;;;;41.80;28.10;;;;;;4362020;32;20029;-37
2021/08/18 05:00:34;;;;;;;;;;;42.00;28.10;;;;;;4361770;32;20400;-38
2021/08/18 05:03:01;;;;;;;;;;;42.10;28.60;;;;;;4376233;32;20398;-39
2021/08/18 05:05:27;;;;;;;;;;;42.20;27.80;;;;;;4375583;32;20030;-39
2021/08/18 05:07:55;;;;;;;;;;;42.40;27.60;;;;;;4362016;32;20073;-38
2021/08/18 05:10:22;;;;;;;;;;;42.60;27.50;;;;;;4375473;32;19972;-38
2021/08/18 05:12:48;;;;;;;;;;;42.80;27.50;;;;;;4375615;32;20052;-39
2021/08/18 05:15:14;;;;;;;;;;;43.00;27.50;;;;;;4375878;32;19946;-38
2021/08/18 05:17:44;;;;;;;;;;;43.20;27.60;;;;;;4375691;32;19961;-37
2021/08/18 05:20:10;;;;;;;;;;;43.30;27.60;;;;;;4375802;32;19969;-38
2021/08/18 05:22:36;;;;;;;;;;;43.40;27.80;;;;;;4375717;32;20489;-37
2021/08/18 05:25:04;;;;;;;;;;;43.40;28.00;;;;;;4375301;32;19984;-39
2021/08/18 05:27:30;;;;;;;;;;;43.40;28.30;;;;;;4375310;32;20040;-39
2021/08/18 05:29:57;;;;;;;;;;;43.50;28.40;;;;;;4375523;32;19988;-39
2021/08/18 05:32:23;;;;;;;;;;;43.50;28.30;;;;;;4364304;32;20000;-39
2021/08/18 05:34:49;;;;;;;;;;;43.40;28.40;;;;;;4360689;32;19954;-38
2021/08/18 05:37:15;;;;;;;;;;;43.40;28.40;;;;;;4360460;32;19964;-37
2021/08/18 05:39:41;;;;;;;;;;;43.30;28.30;;;;;;4360513;32;19977;-38
2021/08/18 05:42:07;;;;;;;;;;;43.30;28.20;;;;;;4359771;32;19961;-38
2021/08/18 05:44:34;;;;;;;;;;;43.30;28.10;;;;;;4360188;32;20414;-37
2021/08/18 05:47:00;;;;;;;;;;;43.30;28.00;;;;;;4360640;32;20054;-37
2021/08/18 05:49:26;;;;;;;;;;;43.40;27.90;;;;;;4360573;32;19957;-37
2021/08/18 05:51:54;;;;;;;;;;;43.50;27.50;;;;;;4360093;32;19958;-38
2021/08/18 05:54:21;;;;;;;;;;;43.70;27.20;;;;;;4360476;32;19996;-38
2021/08/18 05:56:48;;;;;;;;;;;43.80;26.80;;;;;;4360256;32;19968;-38
2021/08/18 05:59:14;;;;;;;;;;;44.10;26.50;;;;;;4359893;32;19962;-38
2021/08/18 06:01:41;;;;;;;;;;;44.30;26.20;;;;;;4360124;32;20426;-38
2021/08/18 06:04:07;;;;;;;;;;;44.50;26.00;;;;;;4360164;32;20473;-38
2021/08/18 06:06:33;;;;;;;;;;;44.70;25.70;;;;;;4360019;32;19957;-37
2021/08/18 06:08:59;;;;;;;;;;;44.80;25.50;;;;;;4334020;32;20032;-39
2021/08/18 06:11:26;;;;;;;;;;;45.00;25.40;;;;;;4360107;32;20466;-39
2021/08/18 06:13:52;;;;;;;;;;;45.20;25.20;;;;;;4360052;32;19957;-38
2021/08/18 06:16:18;;;;;;;;;;;45.30;25.10;;;;;;4358464;32;19979;-38
2021/08/18 06:18:44;;;;;;;;;;;45.50;25.10;;;;;;4359997;32;20469;-37
2021/08/18 06:21:10;;;;;;;;;;;45.60;25.00;;;;;;4359675;32;20342;-38
2021/08/18 06:23:37;;;;;;;;;;;45.60;25.00;;;;;;4359629;32;20055;-38
2021/08/18 06:26:03;;;;;;;;;;;45.80;25.10;;;;;;4359441;32;19962;-39
2021/08/18 06:28:29;;;;;;;;;;;45.80;25.10;;;;;;4359568;32;19969;-38
2021/08/18 06:30:56;;;;;;;;;;;45.90;25.00;;;;;;4347802;32;19969;-39
2021/08/18 06:33:22;;;;;;;;;;;46.00;24.70;;;;;;4374919;32;19962;-39
2021/08/18 06:35:49;;;;;;;;;;;46.20;24.60;;;;;;4374417;32;19989;-39
2021/08/18 06:38:15;;;;;;;;;;;46.30;24.50;;;;;;4374945;32;19960;-39
2021/08/18 06:40:41;;;;;;;;;;;46.50;24.50;;;;;;4374184;32;19984;-39
2021/08/18 06:43:07;;;;;;;;;;;46.70;24.40;;;;;;4374144;32;20126;-39
2021/08/18 06:45:33;;;;;;;;;;;46.90;24.50;;;;;;4374098;32;19961;-39
2021/08/18 06:47:59;;;;;;;;;;;46.90;24.40;;;;;;4341700;32;20121;-39
2021/08/18 06:50:26;;;;;;;;;;;47.00;24.50;;;;;;4341876;33;19962;-39
2021/08/18 06:52:52;;;;;;;;;;;46.90;24.30;;;;;;4342274;33;19965;-39
2021/08/18 06:55:18;;;;;;;;;;;46.90;24.20;;;;;;4342335;32;19985;-39
2021/08/18 06:57:46;;;;;;;;;;;47.00;24.30;;;;;;4341701;33;19962;-39
2021/08/18 07:00:13;;;;;;;;;;;47.00;24.30;;;;;;4341827;33;20038;-38
2021/08/18 07:02:43;;;;;;;;;;;47.00;24.20;;;;;;4342068;33;19973;-38
2021/08/18 07:05:10;;;;;;;;;;;47.10;24.30;;;;;;4341894;32;20009;-39
2021/08/18 07:07:36;;;;;;;;;;;47.20;24.30;;;;;;4341625;33;19954;-39
2021/08/18 07:10:02;;;;;;;;;;;47.30;24.30;;;;;;4341740;33;19966;-40
2021/08/18 07:12:29;;;;;;;;;;;47.30;24.20;;;;;;4341770;33;19970;-39
2021/08/18 07:14:56;;;;;;;;;;;47.30;24.20;;;;;;4341607;32;20539;-39
2021/08/18 07:17:22;;;;;;;;;;;47.30;24.00;;;;;;4341469;33;19958;-38
2021/08/18 07:19:48;;;;;;;;;;;47.20;23.90;;;;;;4369068;32;20402;-38
2021/08/18 07:22:14;;;;;;;;;;;47.30;23.90;;;;;;4373723;32;19972;-38
2021/08/18 07:24:40;;;;;;;;;;;47.30;23.70;;;;;;4373716;32;19966;-38
2021/08/18 07:27:06;;;;;;;;;;;47.30;23.70;;;;;;4373748;32;19954;-38
2021/08/18 07:29:33;;;;;;;;;;;47.30;23.50;;;;;;4373803;32;19950;-39
2021/08/18 07:31:59;;;;;;;;;;;47.20;23.50;;;;;;4365401;32;19954;-39
2021/08/18 07:34:25;;;;;;;;;;;47.20;23.50;;;;;;4358817;32;19966;-41
2021/08/18 07:36:51;;;;;;;;;;;47.10;23.40;;;;;;4358859;32;19961;-39
2021/08/18 07:39:17;;;;;;;;;;;47.10;23.30;;;;;;4358940;32;19970;-40
2021/08/18 07:41:44;;;;;;;;;;;46.90;23.30;;;;;;4358579;32;19981;-39
2021/08/18 07:44:10;;;;;;;;;;;46.90;23.30;;;;;;4358479;32;19965;-39
2021/08/18 07:46:36;;;;;;;;;;;46.80;23.30;;;;;;4358286;32;20086;-39
2021/08/18 07:49:02;;;;;;;;;;;46.70;23.20;;;;;;4358542;32;20041;-39
2021/08/18 07:51:28;;;;;;;;;;;46.70;23.20;;;;;;4358877;32;20414;-39
2021/08/18 07:53:55;;;;;;;;;;;46.80;23.30;;;;;;4358636;32;19982;-39
2021/08/18 07:56:21;;;;;;;;;;;46.80;23.20;;;;;;4358736;32;19950;-39
2021/08/18 07:58:47;;;;;;;;;;;46.80;23.00;;;;;;4358768;32;20060;-39
2021/08/18 08:01:13;;;;;;;;;;;46.80;22.90;;;;;;4358458;32;19969;-38
2021/08/18 08:03:39;;;;;;;;;;;46.90;23.40;;;;;;4358152;32;20407;-38
2021/08/18 08:06:05;;;;;;;;;;;46.90;22.60;;;;;;4358458;32;19961;-38
2021/08/18 08:08:31;;;;;;;;;;;46.90;22.50;;;;;;4358358;32;19977;-39
2021/08/18 08:10:58;;;;;;;;;;;46.90;22.50;;;;;;4358283;32;19961;-39
2021/08/18 08:13:24;;;;;;;;;;;47.10;22.30;;;;;;4358394;32;20379;-39
2021/08/18 08:15:50;;;;;;;;;;;47.30;22.40;;;;;;4358709;32;19954;-39
2021/08/18 08:18:16;;;;;;;;;;;47.40;22.20;;;;;;4358334;32;19968;-39
2021/08/18 08:20:43;;;;;;;;;;;47.60;22.10;;;;;;4358243;32;20011;-39
2021/08/18 08:23:09;;;;;;;;;;;47.90;21.90;;;;;;4358289;32;19957;-39
2021/08/18 08:25:35;;;;;;;;;;;48.10;21.90;;;;;;4358263;32;20027;-38
2021/08/18 08:28:01;;;;;;;;;;;48.20;21.80;;;;;;4358146;32;19947;-39
2021/08/18 08:30:28;;;;;;;;;;;48.20;21.80;;;;;;4358726;32;20443;-39
2021/08/18 08:32:54;;;;;;;;;;;48.10;21.80;;;;;;4358247;32;19973;-39
2021/08/18 08:35:21;;;;;;;;;;;48.20;21.90;;;;;;4358769;32;20142;-39
2021/08/18 08:37:47;;;;;;;;;;;48.20;21.80;;;;;;4358443;32;20418;-39
2021/08/18 08:40:13;;;;;;;;;;;48.30;21.70;;;;;;4358261;32;20414;-39
2021/08/18 08:42:40;;;;;;;;;;;48.40;21.70;;;;;;4358232;32;20400;-39
2021/08/18 08:45:07;;;;;;;;;;;48.30;22.10;;;;;;4356771;32;19957;-39
2021/08/18 08:47:34;;;;;;;;;;;48.30;21.50;;;;;;4358229;32;19962;-39
2021/08/18 08:50:01;;;;;;;;;;;48.10;21.40;;;;;;4357782;32;19966;-39
2021/08/18 08:52:27;;;;;;;;;;;48.00;21.40;;;;;;4356813;32;20543;-40
2021/08/18 08:54:54;;;;;;;;;;;48.00;21.50;;;;;;4369189;32;20034;-38
2021/08/18 08:57:20;;;;;;;;;;;48.10;21.40;;;;;;4344033;32;19987;-39
2021/08/18 08:59:46;;;;;;;;;;;48.10;21.30;;;;;;4358236;32;20071;-39
2021/08/18 09:02:12;;;;;;;;;;;47.90;21.10;;;;;;4356782;32;20026;-38
2021/08/18 09:04:40;;;;;;;;;;;47.80;21.20;;;;;;4357776;32;19965;-40
2021/08/18 09:07:09;;;;;;;;;;;47.90;21.20;;;;;;4358249;32;20354;-38
2021/08/18 09:09:36;;;;;;;;;;;47.90;21.10;;;;;;4357807;32;20365;-38
2021/08/18 09:12:03;;;;;;;;;;;48.00;21.20;;;;;;4357837;32;20045;-39
2021/08/18 09:14:30;;;;;;;;;;;48.10;21.20;;;;;;4358373;32;20001;-39
2021/08/18 09:16:56;;;;;;;;;;;48.10;21.20;;;;;;4364543;32;20376;-38
2021/08/18 09:19:30;;;;;;;;;;;48.10;21.30;;;;;;4372806;32;19978;-38
2021/08/18 09:22:05;;;;;;;;;;;48.10;21.30;;;;;;4372856;32;19965;-39
2021/08/18 09:24:31;;;;;;;;;;;48.10;21.50;;;;;;4372949;32;19964;-40
2021/08/18 09:27:10;;;;;;;;;;;48.20;21.60;;;;;;4325536;33;19990;-39
2021/08/18 09:29:49;;;;;;;;;;;48.30;21.60;;;;;;4325966;33;19996;-39
2021/08/18 09:32:27;;;;;;;;;;;48.40;21.70;;;;;;4325317;33;19981;-38
2021/08/18 09:34:58;;;;;;;;;;;48.40;21.80;;;;;;4298278;33;19975;-39
2021/08/18 09:37:25;;;;;;;;;;;48.40;21.90;;;;;;4299279;33;20380;-39
2021/08/18 09:39:52;;;;;;;;;;;48.40;22.10;;;;;;4299394;33;20035;-39
2021/08/18 09:42:29;;;;;;;;;;;48.20;22.10;;;;;;4299330;33;20034;-38
2021/08/18 09:45:22;;;;;;;;;;;47.90;22.10;;;;;;4299326;33;19966;-38
2021/08/18 09:48:07;;;;;;;;;;;47.90;22.40;;;;;;4299002;33;20418;-38
2021/08/18 09:50:51;;;;;;;;;;;47.80;22.50;;;;;;4298979;33;19959;-39
2021/08/18 09:53:21;;;;;;;;;;;47.80;22.20;;;;;;4299165;33;20084;-39
2021/08/18 09:55:52;;;;;;;;;;;47.90;22.20;;;;;;4298967;33;19967;-39
2021/08/18 09:58:23;;;;;;;;;;;47.90;22.40;;;;;;4317679;33;20050;-40
2021/08/18 10:00:50;;;;;;;;;;;47.90;22.60;;;;;;4328046;33;19973;-39
2021/08/18 10:03:16;;;;;;;;;;;48.00;22.60;;;;;;4328041;33;19989;-39
2021/08/18 10:05:42;;;;;;;;;;;48.00;22.50;;;;;;4341551;32;19966;-39
2021/08/18 10:08:09;;;;;;;;;;;47.90;22.30;;;;;;4346406;32;20416;-38
2021/08/18 10:10:37;;;;;;;;;;;47.90;22.40;;;;;;4359777;32;20029;-39
2021/08/18 10:13:04;;;;;;;;;;;47.80;22.30;;;;;;4360087;32;20035;-39
2021/08/18 10:15:30;;;;;;;;;;;47.70;22.30;;;;;;4345994;32;20385;-39
2021/08/18 10:17:56;;;;;;;;;;;47.70;22.30;;;;;;4345869;32;19954;-39
2021/08/18 10:20:22;;;;;;;;;;;47.80;22.30;;;;;;4345977;32;19978;-39
2021/08/18 10:23:02;;;;;;;;;;;47.90;22.30;;;;;;4359560;32;20409;-39
2021/08/18 10:25:48;;;;;;;;;;;47.70;22.20;;;;;;4346499;32;20067;-39
2021/08/18 10:28:16;;;;;;;;;;;47.50;22.40;;;;;;4346013;32;20017;-39
2021/08/18 10:30:50;;;;;;;;;;;47.50;22.40;;;;;;4359900;32;19985;-39
2021/08/18 10:33:50;;;;;;;;;;;47.70;22.40;;;;;;4374725;32;19964;-39
2021/08/18 10:36:41;;;;;;;;;;;47.90;22.30;;;;;;4374768;32;19953;-39
2021/08/18 10:39:23;;;;;;;;;;;47.90;22.30;;;;;;4374591;32;19985;-41
2021/08/18 10:41:58;;;;;;;;;;;48.00;22.30;;;;;;4374391;32;19957;-38
2021/08/18 10:44:37;;;;;;;;;;;48.00;22.30;;;;;;4373855;32;19974;-38
2021/08/18 10:47:22;;;;;;;;;;;48.00;22.30;;;;;;4374424;32;20050;-39
2021/08/18 10:49:51;;;;;;;;;;;48.10;22.40;;;;;;4361202;32;19952;-39
2021/08/18 10:52:30;;;;;;;;;;;48.10;22.20;;;;;;4374325;32;19957;-39
2021/08/18 10:55:08;;;;;;;;;;;48.20;22.20;;;;;;4374380;32;19984;-39
2021/08/18 10:57:50;;;;;;;;;;;48.00;22.10;;;;;;4374533;32;19965;-38
2021/08/18 11:00:26;;;;;;;;;;;47.90;22.20;;;;;;4374273;32;20015;-38
2021/08/18 11:02:57;;;;;;;;;;;47.70;22.80;;;;;;4374034;32;20433;-38
2021/08/18 11:05:36;;;;;;;;;;;47.50;22.80;;;;;;4374315;32;19981;-39
2021/08/18 11:08:06;;;;;;;;;;;47.50;22.40;;;;;;4373943;32;20394;-39
2021/08/18 11:10:34;;;;;;;;;;;47.50;22.40;;;;;;4374525;32;20110;-39
2021/08/18 11:13:00;;;;;;;;;;;47.70;22.20;;;;;;4374390;32;19958;-38
2021/08/18 11:15:27;;;;;;;;;;;47.90;22.20;;;;;;4374105;32;20025;-39
2021/08/18 11:17:55;;;;;;;;;;;47.90;22.10;;;;;;4373920;32;19960;-38
2021/08/18 11:20:25;;;;;;;;;;;47.70;22.00;;;;;;4373677;32;19976;-39
2021/08/18 11:23:02;;;;;;;;;;;47.50;22.10;;;;;;4374023;32;20037;-39
2021/08/18 11:25:28;;;;;;;;;;;47.30;22.10;;;;;;4373601;32;19961;-39
2021/08/18 11:27:56;;;;;;;;;;;47.10;22.10;;;;;;4373762;32;20424;-39
2021/08/18 11:30:30;;;;;;;;;;;46.90;22.10;;;;;;4372154;32;20464;-38
2021/08/18 11:33:16;;;;;;;;;;;46.60;22.30;;;;;;4359556;32;19965;-39
2021/08/18 11:35:42;;;;;;;;;;;46.30;22.40;;;;;;4346693;32;19987;-39
2021/08/18 11:38:08;;;;;;;;;;;46.00;22.60;;;;;;4358365;32;20385;-39
2021/08/18 11:40:35;;;;;;;;;;;45.80;22.70;;;;;;4358989;32;19991;-38
2021/08/18 11:43:01;;;;;;;;;;;45.60;22.90;;;;;;4358829;32;19954;-39
2021/08/18 11:45:28;;;;;;;;;;;45.50;23.00;;;;;;4358750;32;19973;-39
2021/08/18 11:48:05;;;;;;;;;;;45.50;23.10;;;;;;4344797;32;19962;-39
2021/08/18 11:50:31;;;;;;;;;;;45.50;23.20;;;;;;4358671;32;19958;-38
2021/08/18 11:53:12;;;;;;;;;;;45.60;23.30;;;;;;4344916;32;20067;-38
2021/08/18 11:55:38;;;;;;;;;;;45.60;23.30;;;;;;4358490;32;19982;-38
2021/08/18 11:58:05;;;;;;;;;;;45.50;23.30;;;;;;4358300;32;19946;-39
2021/08/18 12:00:31;;;;;;;;;;;45.50;23.40;;;;;;4358505;32;19953;-39
2021/08/18 12:03:01;;;;;;;;;;;45.50;23.60;;;;;;4358242;32;20062;-39
2021/08/18 12:05:36;;;;;;;;;;;45.40;23.50;;;;;;4357885;32;21240;-38
2021/08/18 12:08:17;;;;;;;;;;;45.40;23.60;;;;;;4358915;32;19971;-39
2021/08/18 12:10:45;;;;;;;;;;;45.20;23.60;;;;;;4345317;32;19953;-38
2021/08/18 12:13:16;;;;;;;;;;;45.20;23.70;;;;;;4358748;32;19988;-39
2021/08/18 12:15:46;;;;;;;;;;;45.30;23.80;;;;;;4358293;32;20374;-38
2021/08/18 12:18:28;;;;;;;;;;;45.30;23.80;;;;;;4358551;32;20047;-40
2021/08/18 12:20:54;;;;;;;;;;;45.20;23.80;;;;;;4358355;32;19961;-38
2021/08/18 12:23:25;;;;;;;;;;;44.90;23.80;;;;;;4358215;32;20406;-38
2021/08/18 12:25:51;;;;;;;;;;;44.70;23.80;;;;;;4344643;32;19961;-39
2021/08/18 12:28:19;;;;;;;;;;;44.50;24.00;;;;;;4358233;32;19996;-39
2021/08/18 12:30:58;;;;;;;;;;;44.30;24.10;;;;;;4358060;32;19985;-39
2021/08/18 12:33:24;;;;;;;;;;;44.20;24.30;;;;;;4357923;32;20513;-39
2021/08/18 12:36:05;;;;;;;;;;;44.20;24.30;;;;;;4358573;32;19973;-39
2021/08/18 12:38:31;;;;;;;;;;;44.40;24.40;;;;;;4358581;32;19986;-39
2021/08/18 12:41:07;;;;;;;;;;;44.70;24.30;;;;;;4356919;32;19962;-39
2021/08/18 12:43:33;;;;;;;;;;;45.00;24.30;;;;;;4358158;32;19977;-38
2021/08/18 12:45:59;;;;;;;;;;;45.30;24.20;;;;;;4357963;32;21076;-39
2021/08/18 12:48:26;;;;;;;;;;;45.60;24.00;;;;;;4357991;32;19968;-39
2021/08/18 12:50:52;;;;;;;;;;;45.80;23.80;;;;;;4358426;32;19961;-39
2021/08/18 12:53:18;;;;;;;;;;;46.00;23.80;;;;;;4358036;32;19958;-39
2021/08/18 12:55:45;;;;;;;;;;;46.10;23.60;;;;;;4357747;32;19961;-38
2021/08/18 12:58:18;;;;;;;;;;;46.20;23.60;;;;;;4357938;32;19959;-38
2021/08/18 13:00:45;;;;;;;;;;;46.20;23.50;;;;;;4357697;32;19997;-39
2021/08/18 13:03:11;;;;;;;;;;;46.30;23.50;;;;;;4357895;32;19976;-40
2021/08/18 13:05:37;;;;;;;;;;;46.40;23.50;;;;;;4358309;32;19992;-40
2021/08/18 13:08:04;;;;;;;;;;;46.40;23.40;;;;;;4358689;32;20453;-38
2021/08/18 13:10:30;;;;;;;;;;;46.30;23.30;;;;;;4360778;32;20354;-38
2021/08/18 13:12:56;;;;;;;;;;;46.20;23.30;;;;;;4361018;32;19962;-40
2021/08/18 13:15:22;;;;;;;;;;;46.00;23.30;;;;;;4360747;32;20038;-39
2021/08/18 13:17:49;;;;;;;;;;;45.90;23.20;;;;;;4372509;32;19966;-39
2021/08/18 13:20:15;;;;;;;;;;;45.90;23.30;;;;;;4375282;32;20045;-39
2021/08/18 13:22:41;;;;;;;;;;;45.90;23.30;;;;;;4375888;32;19974;-40
2021/08/18 13:25:08;;;;;;;;;;;45.90;23.20;;;;;;4375936;32;20042;-40
2021/08/18 13:27:36;;;;;;;;;;;45.90;23.20;;;;;;4361927;32;20033;-40
2021/08/18 13:30:02;;;;;;;;;;;46.00;23.20;;;;;;4375621;32;19973;-40
2021/08/18 13:32:28;;;;;;;;;;;46.00;23.20;;;;;;4363639;32;19965;-39
2021/08/18 13:34:54;;;;;;;;;;;45.90;23.10;;;;;;4360800;32;19966;-40
2021/08/18 13:37:21;;;;;;;;;;;45.80;23.20;;;;;;4360886;32;20402;-40
2021/08/18 13:39:47;;;;;;;;;;;45.60;23.70;;;;;;4360582;32;19969;-40
2021/08/18 13:42:13;;;;;;;;;;;45.50;23.30;;;;;;4360429;32;19974;-39
2021/08/18 13:44:39;;;;;;;;;;;45.30;23.30;;;;;;4360577;32;19958;-38
2021/08/18 13:47:07;;;;;;;;;;;45.20;23.30;;;;;;4360182;32;19978;-39
2021/08/18 13:49:34;;;;;;;;;;;45.10;23.30;;;;;;4360491;32;20373;-39
2021/08/18 13:52:03;;;;;;;;;;;45.00;23.40;;;;;;4360298;32;19950;-38
2021/08/18 13:54:29;;;;;;;;;;;44.90;23.40;;;;;;4359943;32;19958;-39
2021/08/18 13:56:56;;;;;;;;;;;44.80;23.40;;;;;;4359884;32;19970;-39
2021/08/18 13:59:22;;;;;;;;;;;44.80;23.50;;;;;;4359874;32;20365;-40
2021/08/18 14:01:49;;;;;;;;;;;44.80;23.50;;;;;;4360260;32;19962;-39
2021/08/18 14:04:15;;;;;;;;;;;44.80;23.50;;;;;;4359826;32;20556;-39
2021/08/18 14:06:41;;;;;;;;;;;44.80;23.40;;;;;;4359817;32;19981;-39
2021/08/18 14:09:07;;;;;;;;;;;44.80;23.40;;;;;;4360021;32;19974;-39
2021/08/18 14:11:34;;;;;;;;;;;44.70;23.30;;;;;;4360199;32;19973;-40
2021/08/18 14:14:00;;;;;;;;;;;44.70;23.40;;;;;;4359751;32;19961;-39
2021/08/18 14:16:26;;;;;;;;;;;44.60;23.30;;;;;;4359319;32;20406;-39
2021/08/18 14:18:52;;;;;;;;;;;44.60;23.30;;;;;;4359655;32;20458;-39
2021/08/18 14:21:19;;;;;;;;;;;44.50;23.30;;;;;;4359762;32;20043;-39